sensor_id;sensor_type;location;lat;lon;timestamp;P1;durP1;ratioP1;P2;durP2;ratioP2
23642;SDS011;11998;55.788;37.572;2023-02-15T00:00:46;2.47;;;1.00;;
23642;SDS011;11998;55.788;37.572;2023-02-15T00:01:48;7.90;;;1.50;;
23642;SDS011;11998;55.788;37.572;2023-02-15T00:02:49;2.50;;;1.00;;
23642;SDS011;11998;55.788;37.572;2023-02-15T00:03:49;2.27;;;1.00;;
23642;SDS011;11998;55.788;37.572;2023-02-15T00:04:50;5.53;;;1.33;;
23642;SDS011;11998;55.788;37.572;2023-02-15T00:05:51;6.07;;;1.20;;
23642;SDS011;11998;55.788;37.572;2023-02-15T00:06:51;4.10;;;1.00;;
23642;SDS011;11998;55.788;37.572;2023-02-15T00:07:52;3.80;;;1.13;;
23642;SDS011;11998;55.788;37.572;2023-02-15T00:08:53;5.53;;;1.37;;
23642;SDS011;11998;55.788;37.572;2023-02-15T00:09:54;4.18;;;1.27;;
23642;SDS011;11998;55.788;37.572;2023-02-15T00:11:08;3.67;;;1.23;;
23642;SDS011;11998;55.788;37.572;2023-02-15T00:12:10;5.53;;;1.20;;
23642;SDS011;11998;55.788;37.572;2023-02-15T00:13:11;7.90;;;1.00;;
23642;SDS011;11998;55.788;37.572;2023-02-15T00:15:19;5.47;;;1.05;;
23642;SDS011;11998;55.788;37.572;2023-02-15T00:16:20;3.00;;;1.30;;
23642;SDS011;11998;55.788;37.572;2023-02-15T00:17:21;4.03;;;0.80;;
23642;SDS011;11998;55.788;37.572;2023-02-15T00:18:21;4.80;;;1.30;;
23642;SDS011;11998;55.788;37.572;2023-02-15T00:19:22;2.70;;;1.00;;
23642;SDS011;11998;55.788;37.572;2023-02-15T00:20:22;3.80;;;1.10;;
23642;SDS011;11998;55.788;37.572;2023-02-15T00:21:23;4.37;;;1.33;;
23642;SDS011;11998;55.788;37.572;2023-02-15T00:22:23;5.33;;;1.27;;
23642;SDS011;11998;55.788;37.572;2023-02-15T00:23:26;4.07;;;1.40;;
23642;SDS011;11998;55.788;37.572;2023-02-15T00:24:26;3.67;;;1.23;;
23642;SDS011;11998;55.788;37.572;2023-02-15T00:25:27;4.50;;;0.83;;
23642;SDS011;11998;55.788;37.572;2023-02-15T00:26:27;4.53;;;1.20;;
23642;SDS011;11998;55.788;37.572;2023-02-15T00:27:28;6.17;;;1.40;;
23642;SDS011;11998;55.788;37.572;2023-02-15T00:28:29;9.83;;;1.40;;
23642;SDS011;11998;55.788;37.572;2023-02-15T00:29:30;7.18;;;1.55;;
23642;SDS011;11998;55.788;37.572;2023-02-15T00:30:31;4.85;;;1.17;;
23642;SDS011;11998;55.788;37.572;2023-02-15T00:31:32;6.77;;;0.97;;
23642;SDS011;11998;55.788;37.572;2023-02-15T00:32:33;6.60;;;1.25;;
23642;SDS011;11998;55.788;37.572;2023-02-15T00:33:34;4.53;;;0.97;;
23642;SDS011;11998;55.788;37.572;2023-02-15T00:34:35;4.43;;;1.35;;
23642;SDS011;11998;55.788;37.572;2023-02-15T00:35:36;5.37;;;1.20;;
23642;SDS011;11998;55.788;37.572;2023-02-15T00:36:36;6.77;;;1.37;;
23642;SDS011;11998;55.788;37.572;2023-02-15T00:37:37;2.93;;;1.03;;
23642;SDS011;11998;55.788;37.572;2023-02-15T00:38:37;3.80;;;1.10;;
23642;SDS011;11998;55.788;37.572;2023-02-15T00:39:38;4.18;;;1.33;;
23642;SDS011;11998;55.788;37.572;2023-02-15T00:40:39;5.23;;;1.27;;
23642;SDS011;11998;55.788;37.572;2023-02-15T00:41:39;6.47;;;1.07;;
23642;SDS011;11998;55.788;37.572;2023-02-15T00:42:40;2.93;;;1.30;;
23642;SDS011;11998;55.788;37.572;2023-02-15T00:43:40;5.63;;;1.50;;
23642;SDS011;11998;55.788;37.572;2023-02-15T00:44:41;3.13;;;1.27;;
23642;SDS011;11998;55.788;37.572;2023-02-15T00:45:41;3.37;;;1.13;;
23642;SDS011;11998;55.788;37.572;2023-02-15T00:46:42;3.43;;;1.10;;
23642;SDS011;11998;55.788;37.572;2023-02-15T00:47:42;1.97;;;1.10;;
23642;SDS011;11998;55.788;37.572;2023-02-15T00:48:43;5.73;;;1.20;;
23642;SDS011;11998;55.788;37.572;2023-02-15T00:49:43;6.40;;;1.40;;
23642;SDS011;11998;55.788;37.572;2023-02-15T00:50:45;6.70;;;1.30;;
23642;SDS011;11998;55.788;37.572;2023-02-15T00:51:46;6.32;;;1.67;;
23642;SDS011;11998;55.788;37.572;2023-02-15T00:52:47;5.73;;;1.23;;
23642;SDS011;11998;55.788;37.572;2023-02-15T00:53:47;3.67;;;1.30;;
23642;SDS011;11998;55.788;37.572;2023-02-15T00:54:48;3.50;;;1.00;;
23642;SDS011;11998;55.788;37.572;2023-02-15T00:55:49;7.67;;;1.33;;
23642;SDS011;11998;55.788;37.572;2023-02-15T00:56:49;6.27;;;1.10;;
23642;SDS011;11998;55.788;37.572;2023-02-15T00:57:50;4.57;;;1.20;;
23642;SDS011;11998;55.788;37.572;2023-02-15T00:58:50;4.03;;;1.00;;
23642;SDS011;11998;55.788;37.572;2023-02-15T00:59:51;3.73;;;1.23;;
23642;SDS011;11998;55.788;37.572;2023-02-15T01:00:51;3.27;;;1.43;;
23642;SDS011;11998;55.788;37.572;2023-02-15T01:01:52;5.13;;;1.47;;
23642;SDS011;11998;55.788;37.572;2023-02-15T01:02:53;4.87;;;1.00;;
23642;SDS011;11998;55.788;37.572;2023-02-15T01:03:53;4.43;;;1.33;;
23642;SDS011;11998;55.788;37.572;2023-02-15T01:04:54;4.93;;;1.50;;
23642;SDS011;11998;55.788;37.572;2023-02-15T01:05:55;4.97;;;1.23;;
23642;SDS011;11998;55.788;37.572;2023-02-15T01:06:55;5.03;;;1.20;;
23642;SDS011;11998;55.788;37.572;2023-02-15T01:07:56;6.20;;;1.13;;
23642;SDS011;11998;55.788;37.572;2023-02-15T01:08:57;3.05;;;1.10;;
23642;SDS011;11998;55.788;37.572;2023-02-15T01:09:57;6.13;;;1.20;;
23642;SDS011;11998;55.788;37.572;2023-02-15T01:11:02;7.07;;;1.40;;
23642;SDS011;11998;55.788;37.572;2023-02-15T01:12:11;6.68;;;1.05;;
23642;SDS011;11998;55.788;37.572;2023-02-15T01:13:11;3.30;;;1.03;;
23642;SDS011;11998;55.788;37.572;2023-02-15T01:14:12;4.07;;;1.20;;
23642;SDS011;11998;55.788;37.572;2023-02-15T01:15:13;5.50;;;1.08;;
23642;SDS011;11998;55.788;37.572;2023-02-15T01:16:13;6.30;;;1.30;;
23642;SDS011;11998;55.788;37.572;2023-02-15T01:17:14;3.40;;;1.23;;
23642;SDS011;11998;55.788;37.572;2023-02-15T01:18:14;5.13;;;1.63;;
23642;SDS011;11998;55.788;37.572;2023-02-15T01:19:15;5.53;;;1.60;;
23642;SDS011;11998;55.788;37.572;2023-02-15T01:20:15;7.63;;;1.43;;
23642;SDS011;11998;55.788;37.572;2023-02-15T01:21:18;4.32;;;1.23;;
23642;SDS011;11998;55.788;37.572;2023-02-15T01:22:20;4.82;;;1.45;;
23642;SDS011;11998;55.788;37.572;2023-02-15T01:23:21;5.87;;;1.13;;
23642;SDS011;11998;55.788;37.572;2023-02-15T01:24:21;3.43;;;1.23;;
23642;SDS011;11998;55.788;37.572;2023-02-15T01:25:22;3.13;;;1.13;;
23642;SDS011;11998;55.788;37.572;2023-02-15T01:26:24;6.80;;;1.17;;
23642;SDS011;11998;55.788;37.572;2023-02-15T01:27:25;5.25;;;1.27;;
23642;SDS011;11998;55.788;37.572;2023-02-15T01:28:25;7.90;;;1.37;;
23642;SDS011;11998;55.788;37.572;2023-02-15T01:29:26;5.67;;;1.27;;
23642;SDS011;11998;55.788;37.572;2023-02-15T01:30:26;5.07;;;1.20;;
23642;SDS011;11998;55.788;37.572;2023-02-15T01:31:27;5.53;;;1.00;;
23642;SDS011;11998;55.788;37.572;2023-02-15T01:32:27;2.60;;;1.30;;
23642;SDS011;11998;55.788;37.572;2023-02-15T01:33:28;5.10;;;1.40;;
23642;SDS011;11998;55.788;37.572;2023-02-15T01:34:29;3.67;;;1.25;;
23642;SDS011;11998;55.788;37.572;2023-02-15T01:35:30;5.13;;;1.13;;
23642;SDS011;11998;55.788;37.572;2023-02-15T01:36:30;3.73;;;1.03;;
23642;SDS011;11998;55.788;37.572;2023-02-15T01:37:34;4.70;;;1.38;;
23642;SDS011;11998;55.788;37.572;2023-02-15T01:38:35;3.95;;;0.93;;
23642;SDS011;11998;55.788;37.572;2023-02-15T01:39:36;5.57;;;1.63;;
23642;SDS011;11998;55.788;37.572;2023-02-15T01:40:37;3.80;;;1.27;;
23642;SDS011;11998;55.788;37.572;2023-02-15T01:41:38;4.43;;;1.33;;
23642;SDS011;11998;55.788;37.572;2023-02-15T01:42:39;2.60;;;1.00;;
23642;SDS011;11998;55.788;37.572;2023-02-15T01:43:41;3.80;;;1.37;;
23642;SDS011;11998;55.788;37.572;2023-02-15T01:45:49;7.50;;;1.38;;
23642;SDS011;11998;55.788;37.572;2023-02-15T01:46:51;4.57;;;1.10;;
23642;SDS011;11998;55.788;37.572;2023-02-15T01:48:06;5.57;;;1.20;;
23642;SDS011;11998;55.788;37.572;2023-02-15T01:49:17;4.82;;;1.40;;
23642;SDS011;11998;55.788;37.572;2023-02-15T01:50:29;3.75;;;1.48;;
23642;SDS011;11998;55.788;37.572;2023-02-15T01:51:33;3.70;;;1.20;;
23642;SDS011;11998;55.788;37.572;2023-02-15T01:52:37;2.97;;;1.02;;
23642;SDS011;11998;55.788;37.572;2023-02-15T01:53:47;6.22;;;1.55;;
23642;SDS011;11998;55.788;37.572;2023-02-15T01:54:53;5.15;;;1.40;;
23642;SDS011;11998;55.788;37.572;2023-02-15T01:55:58;8.13;;;1.83;;
23642;SDS011;11998;55.788;37.572;2023-02-15T01:57:03;6.25;;;1.88;;
23642;SDS011;11998;55.788;37.572;2023-02-15T01:58:07;5.72;;;1.33;;
23642;SDS011;11998;55.788;37.572;2023-02-15T01:59:09;5.00;;;1.20;;
23642;SDS011;11998;55.788;37.572;2023-02-15T02:00:13;7.30;;;1.35;;
23642;SDS011;11998;55.788;37.572;2023-02-15T02:01:16;4.50;;;1.55;;
23642;SDS011;11998;55.788;37.572;2023-02-15T02:02:18;3.42;;;1.27;;
23642;SDS011;11998;55.788;37.572;2023-02-15T02:03:30;5.30;;;1.35;;
23642;SDS011;11998;55.788;37.572;2023-02-15T02:04:41;3.45;;;1.30;;
23642;SDS011;11998;55.788;37.572;2023-02-15T02:05:43;8.98;;;1.60;;
23642;SDS011;11998;55.788;37.572;2023-02-15T02:06:44;3.67;;;1.30;;
23642;SDS011;11998;55.788;37.572;2023-02-15T02:07:48;3.13;;;1.10;;
23642;SDS011;11998;55.788;37.572;2023-02-15T02:08:53;2.83;;;1.15;;
23642;SDS011;11998;55.788;37.572;2023-02-15T02:09:54;3.90;;;1.00;;
23642;SDS011;11998;55.788;37.572;2023-02-15T02:10:55;5.27;;;1.30;;
23642;SDS011;11998;55.788;37.572;2023-02-15T02:11:55;3.47;;;1.20;;
23642;SDS011;11998;55.788;37.572;2023-02-15T02:13:00;4.67;;;1.23;;
23642;SDS011;11998;55.788;37.572;2023-02-15T02:14:05;6.00;;;1.05;;
23642;SDS011;11998;55.788;37.572;2023-02-15T02:15:05;4.07;;;1.43;;
23642;SDS011;11998;55.788;37.572;2023-02-15T02:19:01;2.35;;;1.10;;
23642;SDS011;11998;55.788;37.572;2023-02-15T02:22:59;7.18;;;1.55;;
23642;SDS011;11998;55.788;37.572;2023-02-15T02:24:31;4.88;;;1.52;;
23642;SDS011;11998;55.788;37.572;2023-02-15T02:26:47;6.03;;;1.20;;
23642;SDS011;11998;55.788;37.572;2023-02-15T02:29:10;3.83;;;1.17;;
23642;SDS011;11998;55.788;37.572;2023-02-15T02:34:43;4.75;;;1.45;;
23642;SDS011;11998;55.788;37.572;2023-02-15T02:35:54;6.00;;;1.42;;
23642;SDS011;11998;55.788;37.572;2023-02-15T02:42:27;6.95;;;1.77;;
23642;SDS011;11998;55.788;37.572;2023-02-15T02:45:28;4.22;;;1.60;;
23642;SDS011;11998;55.788;37.572;2023-02-15T02:48:13;4.20;;;1.52;;
23642;SDS011;11998;55.788;37.572;2023-02-15T02:50:38;4.43;;;1.40;;
23642;SDS011;11998;55.788;37.572;2023-02-15T02:51:40;4.75;;;1.50;;
23642;SDS011;11998;55.788;37.572;2023-02-15T02:53:41;6.40;;;1.50;;
23642;SDS011;11998;55.788;37.572;2023-02-15T02:54:41;9.60;;;2.03;;
23642;SDS011;11998;55.788;37.572;2023-02-15T02:57:15;5.85;;;1.42;;
23642;SDS011;11998;55.788;37.572;2023-02-15T02:58:18;6.93;;;1.95;;
23642;SDS011;11998;55.788;37.572;2023-02-15T02:59:29;5.35;;;1.55;;
23642;SDS011;11998;55.788;37.572;2023-02-15T03:00:37;5.38;;;1.48;;
23642;SDS011;11998;55.788;37.572;2023-02-15T03:01:45;5.03;;;1.48;;
23642;SDS011;11998;55.788;37.572;2023-02-15T03:02:54;4.72;;;1.50;;
23642;SDS011;11998;55.788;37.572;2023-02-15T03:04:12;5.05;;;1.60;;
23642;SDS011;11998;55.788;37.572;2023-02-15T03:05:18;5.03;;;1.60;;
23642;SDS011;11998;55.788;37.572;2023-02-15T03:06:26;5.60;;;1.48;;
23642;SDS011;11998;55.788;37.572;2023-02-15T03:07:31;3.88;;;1.30;;
23642;SDS011;11998;55.788;37.572;2023-02-15T03:08:36;6.07;;;1.75;;
23642;SDS011;11998;55.788;37.572;2023-02-15T03:09:43;6.32;;;1.65;;
23642;SDS011;11998;55.788;37.572;2023-02-15T03:10:52;8.80;;;1.70;;
23642;SDS011;11998;55.788;37.572;2023-02-15T03:11:55;6.78;;;2.03;;
23642;SDS011;11998;55.788;37.572;2023-02-15T03:12:56;4.67;;;1.53;;
23642;SDS011;11998;55.788;37.572;2023-02-15T03:13:57;4.97;;;1.40;;
23642;SDS011;11998;55.788;37.572;2023-02-15T03:15:01;4.30;;;1.75;;
23642;SDS011;11998;55.788;37.572;2023-02-15T03:16:06;6.90;;;2.08;;
23642;SDS011;11998;55.788;37.572;2023-02-15T03:17:28;4.05;;;1.17;;
23642;SDS011;11998;55.788;37.572;2023-02-15T03:18:34;7.68;;;1.80;;
23642;SDS011;11998;55.788;37.572;2023-02-15T03:19:38;6.85;;;2.17;;
23642;SDS011;11998;55.788;37.572;2023-02-15T03:20:39;4.68;;;1.80;;
23642;SDS011;11998;55.788;37.572;2023-02-15T03:21:42;5.80;;;1.80;;
23642;SDS011;11998;55.788;37.572;2023-02-15T03:22:59;6.80;;;1.63;;
23642;SDS011;11998;55.788;37.572;2023-02-15T03:24:07;4.32;;;1.65;;
23642;SDS011;11998;55.788;37.572;2023-02-15T03:25:22;7.93;;;1.90;;
23642;SDS011;11998;55.788;37.572;2023-02-15T03:26:31;6.15;;;1.75;;
23642;SDS011;11998;55.788;37.572;2023-02-15T03:27:36;5.85;;;1.95;;
23642;SDS011;11998;55.788;37.572;2023-02-15T03:28:42;5.07;;;1.77;;
23642;SDS011;11998;55.788;37.572;2023-02-15T03:29:46;4.63;;;1.77;;
23642;SDS011;11998;55.788;37.572;2023-02-15T03:30:51;4.95;;;2.03;;
23642;SDS011;11998;55.788;37.572;2023-02-15T03:31:57;8.45;;;2.05;;
23642;SDS011;11998;55.788;37.572;2023-02-15T03:33:01;5.47;;;1.58;;
23642;SDS011;11998;55.788;37.572;2023-02-15T03:34:06;3.42;;;1.77;;
23642;SDS011;11998;55.788;37.572;2023-02-15T03:35:10;6.10;;;2.03;;
23642;SDS011;11998;55.788;37.572;2023-02-15T03:36:13;7.13;;;1.70;;
23642;SDS011;11998;55.788;37.572;2023-02-15T03:37:40;4.88;;;1.40;;
23642;SDS011;11998;55.788;37.572;2023-02-15T03:38:45;3.78;;;1.63;;
23642;SDS011;11998;55.788;37.572;2023-02-15T03:40:11;6.25;;;2.10;;
23642;SDS011;11998;55.788;37.572;2023-02-15T03:44:35;5.45;;;1.52;;
23642;SDS011;11998;55.788;37.572;2023-02-15T03:45:52;3.50;;;1.60;;
23642;SDS011;11998;55.788;37.572;2023-02-15T03:48:06;5.47;;;2.10;;
23642;SDS011;11998;55.788;37.572;2023-02-15T03:49:15;7.97;;;2.03;;
23642;SDS011;11998;55.788;37.572;2023-02-15T03:50:27;3.20;;;1.60;;
23642;SDS011;11998;55.788;37.572;2023-02-15T03:51:50;2.50;;;1.20;;
23642;SDS011;11998;55.788;37.572;2023-02-15T03:52:54;5.53;;;1.80;;
23642;SDS011;11998;55.788;37.572;2023-02-15T03:53:57;5.63;;;1.55;;
23642;SDS011;11998;55.788;37.572;2023-02-15T03:55:00;5.65;;;1.65;;
23642;SDS011;11998;55.788;37.572;2023-02-15T03:56:00;4.70;;;1.67;;
23642;SDS011;11998;55.788;37.572;2023-02-15T03:57:01;3.73;;;1.70;;
23642;SDS011;11998;55.788;37.572;2023-02-15T03:58:20;5.05;;;1.90;;
23642;SDS011;11998;55.788;37.572;2023-02-15T03:59:39;2.92;;;1.70;;
23642;SDS011;11998;55.788;37.572;2023-02-15T04:01:00;10.20;;;2.50;;
23642;SDS011;11998;55.788;37.572;2023-02-15T04:03:39;3.42;;;1.60;;
23642;SDS011;11998;55.788;37.572;2023-02-15T04:04:45;4.60;;;1.73;;
23642;SDS011;11998;55.788;37.572;2023-02-15T04:05:47;5.85;;;1.98;;
23642;SDS011;11998;55.788;37.572;2023-02-15T04:06:48;6.17;;;1.60;;
23642;SDS011;11998;55.788;37.572;2023-02-15T04:07:48;2.70;;;1.53;;
23642;SDS011;11998;55.788;37.572;2023-02-15T04:08:49;3.70;;;1.50;;
23642;SDS011;11998;55.788;37.572;2023-02-15T04:10:08;5.07;;;1.85;;
23642;SDS011;11998;55.788;37.572;2023-02-15T04:11:27;8.23;;;1.88;;
23642;SDS011;11998;55.788;37.572;2023-02-15T04:12:27;6.87;;;2.00;;
23642;SDS011;11998;55.788;37.572;2023-02-15T04:13:31;2.17;;;1.30;;
23642;SDS011;11998;55.788;37.572;2023-02-15T04:14:32;5.72;;;1.70;;
23642;SDS011;11998;55.788;37.572;2023-02-15T04:15:53;4.18;;;1.20;;
23642;SDS011;11998;55.788;37.572;2023-02-15T04:17:06;6.57;;;1.40;;
23642;SDS011;11998;55.788;37.572;2023-02-15T04:18:08;6.18;;;1.90;;
23642;SDS011;11998;55.788;37.572;2023-02-15T04:19:08;6.13;;;2.03;;
23642;SDS011;11998;55.788;37.572;2023-02-15T04:20:27;3.63;;;1.75;;
23642;SDS011;11998;55.788;37.572;2023-02-15T04:21:47;4.50;;;1.38;;
23642;SDS011;11998;55.788;37.572;2023-02-15T04:23:06;4.55;;;1.55;;
23642;SDS011;11998;55.788;37.572;2023-02-15T04:24:26;3.83;;;1.63;;
23642;SDS011;11998;55.788;37.572;2023-02-15T04:25:45;4.38;;;1.52;;
23642;SDS011;11998;55.788;37.572;2023-02-15T04:26:45;3.67;;;1.63;;
23642;SDS011;11998;55.788;37.572;2023-02-15T04:27:51;5.80;;;1.48;;
23642;SDS011;11998;55.788;37.572;2023-02-15T04:28:53;3.97;;;1.45;;
23642;SDS011;11998;55.788;37.572;2023-02-15T04:29:53;6.53;;;1.93;;
23642;SDS011;11998;55.788;37.572;2023-02-15T04:30:54;5.57;;;1.63;;
23642;SDS011;11998;55.788;37.572;2023-02-15T04:31:55;5.47;;;1.97;;
23642;SDS011;11998;55.788;37.572;2023-02-15T04:32:57;7.50;;;2.08;;
23642;SDS011;11998;55.788;37.572;2023-02-15T04:33:58;6.17;;;1.60;;
23642;SDS011;11998;55.788;37.572;2023-02-15T04:34:58;6.23;;;1.70;;
23642;SDS011;11998;55.788;37.572;2023-02-15T04:35:59;5.53;;;1.73;;
23642;SDS011;11998;55.788;37.572;2023-02-15T04:37:00;2.78;;;1.00;;
23642;SDS011;11998;55.788;37.572;2023-02-15T04:38:00;4.10;;;1.13;;
23642;SDS011;11998;55.788;37.572;2023-02-15T04:39:01;5.00;;;1.67;;
23642;SDS011;11998;55.788;37.572;2023-02-15T04:40:02;4.57;;;1.57;;
23642;SDS011;11998;55.788;37.572;2023-02-15T04:41:03;4.75;;;1.48;;
23642;SDS011;11998;55.788;37.572;2023-02-15T04:42:04;6.60;;;1.60;;
23642;SDS011;11998;55.788;37.572;2023-02-15T04:43:04;4.73;;;1.70;;
23642;SDS011;11998;55.788;37.572;2023-02-15T04:44:05;3.97;;;1.70;;
23642;SDS011;11998;55.788;37.572;2023-02-15T04:45:06;7.50;;;1.90;;
23642;SDS011;11998;55.788;37.572;2023-02-15T04:46:06;5.43;;;1.93;;
23642;SDS011;11998;55.788;37.572;2023-02-15T04:47:07;2.97;;;1.57;;
23642;SDS011;11998;55.788;37.572;2023-02-15T04:48:07;7.90;;;1.83;;
23642;SDS011;11998;55.788;37.572;2023-02-15T04:49:08;8.23;;;2.20;;
23642;SDS011;11998;55.788;37.572;2023-02-15T04:50:09;4.05;;;1.55;;
23642;SDS011;11998;55.788;37.572;2023-02-15T04:51:10;6.13;;;1.77;;
23642;SDS011;11998;55.788;37.572;2023-02-15T04:52:11;5.90;;;2.00;;
23642;SDS011;11998;55.788;37.572;2023-02-15T04:53:11;6.67;;;1.50;;
23642;SDS011;11998;55.788;37.572;2023-02-15T04:54:12;5.90;;;1.63;;
23642;SDS011;11998;55.788;37.572;2023-02-15T04:55:12;9.67;;;2.10;;
23642;SDS011;11998;55.788;37.572;2023-02-15T04:56:14;6.00;;;1.77;;
23642;SDS011;11998;55.788;37.572;2023-02-15T04:57:15;4.90;;;1.73;;
23642;SDS011;11998;55.788;37.572;2023-02-15T04:58:15;6.43;;;1.80;;
23642;SDS011;11998;55.788;37.572;2023-02-15T04:59:16;8.33;;;2.07;;
23642;SDS011;11998;55.788;37.572;2023-02-15T05:00:16;2.80;;;1.47;;
23642;SDS011;11998;55.788;37.572;2023-02-15T05:01:17;4.70;;;1.60;;
23642;SDS011;11998;55.788;37.572;2023-02-15T05:02:18;8.07;;;1.67;;
23642;SDS011;11998;55.788;37.572;2023-02-15T05:03:18;6.30;;;1.70;;
23642;SDS011;11998;55.788;37.572;2023-02-15T05:04:19;5.03;;;1.50;;
23642;SDS011;11998;55.788;37.572;2023-02-15T05:05:20;3.80;;;1.60;;
23642;SDS011;11998;55.788;37.572;2023-02-15T05:06:20;4.23;;;1.70;;
23642;SDS011;11998;55.788;37.572;2023-02-15T05:07:21;4.33;;;1.60;;
23642;SDS011;11998;55.788;37.572;2023-02-15T05:08:21;5.30;;;1.70;;
23642;SDS011;11998;55.788;37.572;2023-02-15T05:09:22;7.57;;;1.53;;
23642;SDS011;11998;55.788;37.572;2023-02-15T05:10:23;7.40;;;2.00;;
23642;SDS011;11998;55.788;37.572;2023-02-15T05:11:23;4.53;;;1.73;;
23642;SDS011;11998;55.788;37.572;2023-02-15T05:12:24;4.43;;;1.70;;
23642;SDS011;11998;55.788;37.572;2023-02-15T05:13:24;5.20;;;1.80;;
23642;SDS011;11998;55.788;37.572;2023-02-15T05:14:25;5.90;;;1.80;;
23642;SDS011;11998;55.788;37.572;2023-02-15T05:15:25;6.10;;;1.50;;
23642;SDS011;11998;55.788;37.572;2023-02-15T05:16:26;8.23;;;1.90;;
23642;SDS011;11998;55.788;37.572;2023-02-15T05:17:27;4.32;;;1.70;;
23642;SDS011;11998;55.788;37.572;2023-02-15T05:18:28;5.97;;;1.87;;
23642;SDS011;11998;55.788;37.572;2023-02-15T05:19:28;4.30;;;2.40;;
23642;SDS011;11998;55.788;37.572;2023-02-15T05:20:29;4.13;;;1.90;;
23642;SDS011;11998;55.788;37.572;2023-02-15T05:21:29;5.07;;;1.73;;
23642;SDS011;11998;55.788;37.572;2023-02-15T05:22:31;4.35;;;1.65;;
23642;SDS011;11998;55.788;37.572;2023-02-15T05:23:31;8.80;;;2.27;;
23642;SDS011;11998;55.788;37.572;2023-02-15T05:24:32;6.43;;;1.87;;
23642;SDS011;11998;55.788;37.572;2023-02-15T05:25:51;4.20;;;1.90;;
23642;SDS011;11998;55.788;37.572;2023-02-15T05:27:11;6.07;;;2.28;;
23642;SDS011;11998;55.788;37.572;2023-02-15T05:28:30;6.85;;;2.25;;
23642;SDS011;11998;55.788;37.572;2023-02-15T05:29:31;8.47;;;2.00;;
23642;SDS011;11998;55.788;37.572;2023-02-15T05:30:31;7.13;;;2.10;;
23642;SDS011;11998;55.788;37.572;2023-02-15T05:31:32;3.60;;;2.00;;
23642;SDS011;11998;55.788;37.572;2023-02-15T05:32:32;4.83;;;1.97;;
23642;SDS011;11998;55.788;37.572;2023-02-15T05:33:33;7.60;;;1.97;;
23642;SDS011;11998;55.788;37.572;2023-02-15T05:34:34;7.50;;;1.88;;
23642;SDS011;11998;55.788;37.572;2023-02-15T05:35:34;5.80;;;2.10;;
23642;SDS011;11998;55.788;37.572;2023-02-15T05:36:35;6.23;;;2.17;;
23642;SDS011;11998;55.788;37.572;2023-02-15T05:37:35;4.03;;;2.07;;
23642;SDS011;11998;55.788;37.572;2023-02-15T05:38:36;6.10;;;2.20;;
23642;SDS011;11998;55.788;37.572;2023-02-15T05:39:37;4.78;;;2.08;;
23642;SDS011;11998;55.788;37.572;2023-02-15T05:40:38;7.33;;;2.63;;
23642;SDS011;11998;55.788;37.572;2023-02-15T05:41:38;6.90;;;2.90;;
23642;SDS011;11998;55.788;37.572;2023-02-15T05:42:39;6.10;;;2.80;;
23642;SDS011;11998;55.788;37.572;2023-02-15T05:43:40;5.03;;;2.53;;
23642;SDS011;11998;55.788;37.572;2023-02-15T05:44:40;4.90;;;2.30;;
23642;SDS011;11998;55.788;37.572;2023-02-15T05:45:44;9.20;;;2.90;;
23642;SDS011;11998;55.788;37.572;2023-02-15T05:46:48;3.83;;;2.30;;
23642;SDS011;11998;55.788;37.572;2023-02-15T05:47:48;6.07;;;2.60;;
23642;SDS011;11998;55.788;37.572;2023-02-15T05:48:49;5.80;;;2.30;;
23642;SDS011;11998;55.788;37.572;2023-02-15T05:49:49;6.33;;;2.57;;
23642;SDS011;11998;55.788;37.572;2023-02-15T05:50:59;6.27;;;2.53;;
23642;SDS011;11998;55.788;37.572;2023-02-15T05:52:02;4.03;;;2.30;;
23642;SDS011;11998;55.788;37.572;2023-02-15T05:53:03;6.00;;;2.50;;
23642;SDS011;11998;55.788;37.572;2023-02-15T05:54:04;9.60;;;3.10;;
23642;SDS011;11998;55.788;37.572;2023-02-15T05:55:04;6.10;;;2.30;;
23642;SDS011;11998;55.788;37.572;2023-02-15T05:56:06;7.97;;;3.25;;
23642;SDS011;11998;55.788;37.572;2023-02-15T05:57:08;5.45;;;2.40;;
23642;SDS011;11998;55.788;37.572;2023-02-15T05:58:09;7.00;;;2.90;;
23642;SDS011;11998;55.788;37.572;2023-02-15T05:59:09;6.43;;;2.90;;
23642;SDS011;11998;55.788;37.572;2023-02-15T06:00:10;5.50;;;2.80;;
23642;SDS011;11998;55.788;37.572;2023-02-15T06:01:13;6.25;;;2.80;;
23642;SDS011;11998;55.788;37.572;2023-02-15T06:02:15;9.65;;;3.40;;
23642;SDS011;11998;55.788;37.572;2023-02-15T06:03:16;7.80;;;3.57;;
23642;SDS011;11998;55.788;37.572;2023-02-15T06:04:16;8.30;;;3.60;;
23642;SDS011;11998;55.788;37.572;2023-02-15T06:05:18;5.30;;;2.93;;
23642;SDS011;11998;55.788;37.572;2023-02-15T06:06:18;7.28;;;3.53;;
23642;SDS011;11998;55.788;37.572;2023-02-15T06:07:19;9.97;;;3.83;;
23642;SDS011;11998;55.788;37.572;2023-02-15T06:08:19;4.77;;;2.67;;
23642;SDS011;11998;55.788;37.572;2023-02-15T06:09:21;5.43;;;2.83;;
23642;SDS011;11998;55.788;37.572;2023-02-15T06:10:21;11.53;;;3.60;;
23642;SDS011;11998;55.788;37.572;2023-02-15T06:11:22;4.57;;;3.00;;
23642;SDS011;11998;55.788;37.572;2023-02-15T06:12:22;7.90;;;2.70;;
23642;SDS011;11998;55.788;37.572;2023-02-15T06:13:23;5.67;;;2.97;;
23642;SDS011;11998;55.788;37.572;2023-02-15T06:14:23;3.53;;;2.80;;
23642;SDS011;11998;55.788;37.572;2023-02-15T06:15:24;6.53;;;3.10;;
23642;SDS011;11998;55.788;37.572;2023-02-15T06:16:24;6.37;;;2.93;;
23642;SDS011;11998;55.788;37.572;2023-02-15T06:17:25;8.10;;;3.30;;
23642;SDS011;11998;55.788;37.572;2023-02-15T06:18:25;7.13;;;2.97;;
23642;SDS011;11998;55.788;37.572;2023-02-15T06:19:26;7.87;;;3.10;;
23642;SDS011;11998;55.788;37.572;2023-02-15T06:20:26;7.63;;;4.13;;
23642;SDS011;11998;55.788;37.572;2023-02-15T06:21:28;5.93;;;2.73;;
23642;SDS011;11998;55.788;37.572;2023-02-15T06:22:28;8.30;;;3.00;;
23642;SDS011;11998;55.788;37.572;2023-02-15T06:23:29;8.63;;;2.83;;
23642;SDS011;11998;55.788;37.572;2023-02-15T06:24:29;7.47;;;2.80;;
23642;SDS011;11998;55.788;37.572;2023-02-15T06:25:30;8.97;;;3.43;;
23642;SDS011;11998;55.788;37.572;2023-02-15T06:26:30;11.23;;;4.63;;
23642;SDS011;11998;55.788;37.572;2023-02-15T06:27:31;10.20;;;3.10;;
23642;SDS011;11998;55.788;37.572;2023-02-15T06:28:31;9.83;;;3.13;;
23642;SDS011;11998;55.788;37.572;2023-02-15T06:29:32;9.90;;;3.03;;
23642;SDS011;11998;55.788;37.572;2023-02-15T06:30:32;10.60;;;3.77;;
23642;SDS011;11998;55.788;37.572;2023-02-15T06:31:33;11.10;;;3.40;;
23642;SDS011;11998;55.788;37.572;2023-02-15T06:32:33;5.27;;;2.33;;
23642;SDS011;11998;55.788;37.572;2023-02-15T06:33:34;9.50;;;3.20;;
23642;SDS011;11998;55.788;37.572;2023-02-15T06:34:35;7.63;;;2.80;;
23642;SDS011;11998;55.788;37.572;2023-02-15T06:35:35;7.17;;;2.83;;
23642;SDS011;11998;55.788;37.572;2023-02-15T06:36:36;6.07;;;2.60;;
23642;SDS011;11998;55.788;37.572;2023-02-15T06:37:37;7.60;;;2.70;;
23642;SDS011;11998;55.788;37.572;2023-02-15T06:38:37;7.47;;;2.80;;
23642;SDS011;11998;55.788;37.572;2023-02-15T06:39:38;5.87;;;2.47;;
23642;SDS011;11998;55.788;37.572;2023-02-15T06:40:38;7.20;;;2.77;;
23642;SDS011;11998;55.788;37.572;2023-02-15T06:41:39;6.77;;;2.73;;
23642;SDS011;11998;55.788;37.572;2023-02-15T06:42:41;6.05;;;2.35;;
23642;SDS011;11998;55.788;37.572;2023-02-15T06:43:42;7.95;;;2.72;;
23642;SDS011;11998;55.788;37.572;2023-02-15T06:44:42;6.03;;;2.07;;
23642;SDS011;11998;55.788;37.572;2023-02-15T06:45:43;10.20;;;2.63;;
23642;SDS011;11998;55.788;37.572;2023-02-15T06:46:44;4.80;;;2.40;;
23642;SDS011;11998;55.788;37.572;2023-02-15T06:47:44;4.27;;;2.23;;
23642;SDS011;11998;55.788;37.572;2023-02-15T06:48:45;6.13;;;2.30;;